Terminal Aerodrome Forecast
Issued by NWS Amarillo, TX

Home | Current Version | Previous Version | Text Only | Print | Product List | Glossary On
Versions: 1 2 3 4 5 6 7 8 9 10 11 12 13 14 15 16
000
FTUS44 KAMA 292300
TAFAMA
TAF
KAMA 292320Z 3000/3024 08008KT P6SM SCT050
     FM300100 04006KT P6SM VCTS SCT040CB BKN200
      TEMPO 3001/3005 -TSRA BKN040CB
     FM300500 02008KT P6SM SCT010 BKN025
     FM301500 07009KT P6SM SCT025 BKN200=

USA.gov is the U.S. government's official web portal to all federal, state and local government web resources and services.